createdAt,value
2022-12-18T00:01:36.082Z,18.87
2022-12-18T00:04:07.243Z,18.50
2022-12-18T00:06:36.238Z,16.07
2022-12-18T00:09:04.400Z,18.53
2022-12-18T00:11:33.446Z,21.53
2022-12-18T00:14:01.197Z,17.50
2022-12-18T00:16:31.064Z,19.53
2022-12-18T00:18:59.616Z,18.23
2022-12-18T00:21:33.492Z,15.13
2022-12-18T00:24:03.843Z,16.67
2022-12-18T00:26:33.068Z,19.73
2022-12-18T00:29:12.556Z,17.47
2022-12-18T00:31:41.057Z,15.60
2022-12-18T00:34:07.903Z,19.80
2022-12-18T00:36:37.141Z,11.10
2022-12-18T00:39:05.674Z,9.57
2022-12-18T00:42:07.980Z,13.97
2022-12-18T00:44:42.606Z,18.23
2022-12-18T00:47:09.458Z,14.67
2022-12-18T00:49:38.528Z,15.93
2022-12-18T00:52:07.422Z,14.60
2022-12-18T00:54:35.525Z,14.00
2022-12-18T00:57:05.345Z,25.23
2022-12-18T00:59:32.261Z,11.17
2022-12-18T01:02:01.334Z,13.03
2022-12-18T01:04:34.823Z,17.23
2022-12-18T01:07:01.615Z,14.17
2022-12-18T01:09:30.066Z,15.83
2022-12-18T01:12:04.102Z,13.70
2022-12-18T01:14:30.859Z,18.70
2022-12-18T01:16:59.842Z,12.63
2022-12-18T01:19:27.932Z,12.10
2022-12-18T01:21:54.876Z,16.27
2022-12-18T01:24:22.121Z,12.97
2022-12-18T01:26:49.073Z,14.87
2022-12-18T01:29:17.127Z,12.77
2022-12-18T01:31:51.055Z,13.27
2022-12-18T01:34:20.028Z,16.33
2022-12-18T01:36:53.893Z,14.03
2022-12-18T01:39:20.802Z,13.90
2022-12-18T01:42:03.131Z,18.30
2022-12-18T01:44:59.919Z,14.67
2022-12-18T01:47:31.589Z,18.90
2022-12-18T01:50:12.253Z,16.13
2022-12-18T01:52:47.775Z,15.87
2022-12-18T01:55:24.259Z,22.53
2022-12-18T01:58:01.537Z,27.17
2022-12-18T02:00:29.673Z,19.67
2022-12-18T02:02:57.852Z,20.70
2022-12-18T02:05:59.708Z,14.70
2022-12-18T02:08:36.522Z,26.20
2022-12-18T02:11:23.036Z,23.53
2022-12-18T02:14:23.911Z,21.93
2022-12-18T02:17:09.617Z,20.87
2022-12-18T02:19:46.314Z,22.17
2022-12-18T02:22:46.362Z,23.73
2022-12-18T02:25:19.266Z,14.60
2022-12-18T02:27:53.526Z,22.77
2022-12-18T02:30:23.634Z,20.73
2022-12-18T02:32:54.086Z,15.70
2022-12-18T02:35:28.689Z,17.57
2022-12-18T02:37:58.930Z,16.23
2022-12-18T02:40:32.136Z,21.33
2022-12-18T02:43:10.629Z,22.90
2022-12-18T02:45:47.680Z,18.70
2022-12-18T02:48:19.208Z,21.03
2022-12-18T02:51:24.829Z,13.33
2022-12-18T02:53:59.830Z,19.40
2022-12-18T02:56:35.057Z,12.10
2022-12-18T02:59:34.874Z,17.40
2022-12-18T03:02:17.928Z,14.23
2022-12-18T03:05:10.625Z,11.87
2022-12-18T03:07:53.759Z,9.63
2022-12-18T03:10:30.188Z,11.17
2022-12-18T03:13:10.502Z,12.70
2022-12-18T03:15:48.868Z,13.70
2022-12-18T03:18:27.714Z,16.47
2022-12-18T03:20:59.358Z,13.43
2022-12-18T03:23:33.625Z,15.03
2022-12-18T03:26:08.734Z,9.90
2022-12-18T03:28:45.233Z,13.23
2022-12-18T03:31:14.968Z,14.53
2022-12-18T03:33:54.940Z,17.03
2022-12-18T03:36:28.074Z,16.20
2022-12-18T03:38:57.111Z,10.40
2022-12-18T03:41:32.108Z,17.73
2022-12-18T03:44:14.397Z,7.87
2022-12-18T03:46:56.397Z,10.73
2022-12-18T03:49:49.434Z,14.10
2022-12-18T03:52:31.883Z,11.17
2022-12-18T03:55:02.513Z,17.83
2022-12-18T03:57:32.485Z,10.63
2022-12-18T04:00:10.578Z,16.73
2022-12-18T04:02:42.102Z,10.20
2022-12-18T04:05:16.682Z,13.30
2022-12-18T04:07:46.032Z,9.90
2022-12-18T04:10:19.881Z,8.77
2022-12-18T04:12:46.754Z,11.57
2022-12-18T04:15:17.766Z,10.30
2022-12-18T04:17:50.728Z,13.83
2022-12-18T04:20:19.531Z,11.77
2022-12-18T04:22:49.505Z,8.63
2022-12-18T04:25:16.455Z,8.87
2022-12-18T04:27:53.881Z,13.87
2022-12-18T04:30:20.603Z,17.20
2022-12-18T04:32:52.056Z,14.67
2022-12-18T04:35:22.397Z,12.00
2022-12-18T04:37:51.558Z,10.40
2022-12-18T04:40:25.739Z,6.90
2022-12-18T04:42:52.600Z,11.53
2022-12-18T04:45:22.825Z,10.67
2022-12-18T04:48:06.895Z,12.23
2022-12-18T04:50:37.063Z,11.90
2022-12-18T04:53:16.137Z,11.37
2022-12-18T04:55:48.802Z,14.67
2022-12-18T04:58:15.985Z,13.70
2022-12-18T05:00:49.328Z,14.03
2022-12-18T05:03:16.105Z,12.73
2022-12-18T05:05:46.008Z,14.50
2022-12-18T05:08:12.996Z,14.23
2022-12-18T05:10:42.003Z,9.97
2022-12-18T05:13:11.480Z,16.03
2022-12-18T05:15:39.368Z,14.67
2022-12-18T05:18:09.309Z,17.37
2022-12-18T05:20:39.182Z,20.43
2022-12-18T05:23:09.174Z,21.47
2022-12-18T05:25:39.030Z,21.57
2022-12-18T05:28:08.116Z,16.07
2022-12-18T05:30:35.422Z,15.83
2022-12-18T05:33:02.272Z,18.97
2022-12-18T05:35:29.189Z,21.93
2022-12-18T05:38:03.844Z,17.90
2022-12-18T05:40:30.911Z,17.90
2022-12-18T05:43:00.598Z,14.63
2022-12-18T05:45:30.128Z,23.73
2022-12-18T05:48:04.258Z,24.50
2022-12-18T05:50:31.178Z,19.47
2022-12-18T05:52:58.018Z,23.80
2022-12-18T05:55:27.948Z,19.83
2022-12-18T05:57:55.709Z,22.23
2022-12-18T06:00:28.738Z,21.93
2022-12-18T06:02:55.817Z,26.20
2022-12-18T06:05:26.222Z,22.43
2022-12-18T06:07:53.000Z,20.43
2022-12-18T06:10:20.742Z,24.70
2022-12-18T06:12:50.838Z,21.37
2022-12-18T06:15:19.890Z,18.57
2022-12-18T06:17:48.994Z,25.43
2022-12-18T06:20:19.404Z,16.63
2022-12-18T06:22:49.493Z,22.53
2022-12-18T06:25:16.535Z,22.77
2022-12-18T06:27:45.446Z,26.43
2022-12-18T06:30:19.603Z,20.97
2022-12-18T06:32:50.512Z,19.00
2022-12-18T06:35:36.380Z,21.73
2022-12-18T06:38:05.644Z,26.03
2022-12-18T06:40:32.699Z,16.10
2022-12-18T06:43:01.583Z,22.57
2022-12-18T06:45:31.955Z,21.93
2022-12-18T06:47:58.943Z,23.90
2022-12-18T06:50:26.265Z,18.37
2022-12-18T06:52:59.148Z,22.13
2022-12-18T06:55:38.193Z,19.27
2022-12-18T06:58:11.416Z,19.37
2022-12-18T07:00:47.632Z,11.70
2022-12-18T07:03:16.529Z,21.80
2022-12-18T07:05:43.279Z,21.93
2022-12-18T07:08:10.108Z,23.10
2022-12-18T07:10:47.461Z,19.60
2022-12-18T07:13:17.186Z,22.03
2022-12-18T07:15:44.943Z,19.87
2022-12-18T07:18:14.356Z,25.03
2022-12-18T07:20:42.076Z,8.47
2022-12-18T07:23:08.828Z,25.23
2022-12-18T07:25:38.467Z,23.47
2022-12-18T07:28:05.556Z,23.60
2022-12-18T07:30:32.410Z,25.77
2022-12-18T07:33:00.325Z,23.53
2022-12-18T07:35:27.124Z,24.40
2022-12-18T07:37:53.888Z,24.87
2022-12-18T07:40:20.699Z,23.37
2022-12-18T07:42:47.408Z,23.47
2022-12-18T07:45:15.578Z,23.20
2022-12-18T07:47:43.648Z,22.43
2022-12-18T07:50:16.588Z,22.83
2022-12-18T07:52:43.355Z,23.30
2022-12-18T07:55:10.166Z,21.43
2022-12-18T07:57:56.415Z,21.83
2022-12-18T08:00:24.152Z,21.50
2022-12-18T08:02:52.082Z,10.97
2022-12-18T08:05:21.641Z,12.77
2022-12-18T08:07:48.497Z,19.83
2022-12-18T08:10:15.470Z,21.30
2022-12-18T08:12:42.255Z,23.03
2022-12-18T08:15:09.731Z,25.23
2022-12-18T08:17:36.783Z,22.90
2022-12-18T08:20:03.929Z,22.37
2022-12-18T08:22:31.172Z,23.17
2022-12-18T08:25:00.052Z,28.27
2022-12-18T08:27:30.467Z,17.47
2022-12-18T08:29:58.387Z,23.47
2022-12-18T08:32:26.658Z,26.13
2022-12-18T08:34:53.586Z,22.47
2022-12-18T08:37:20.587Z,18.63
2022-12-18T08:39:47.323Z,21.23
2022-12-18T08:42:32.448Z,18.30
2022-12-18T08:44:59.528Z,23.87
2022-12-18T08:47:27.525Z,21.27
2022-12-18T08:49:54.363Z,24.93
2022-12-18T08:52:21.215Z,12.53
2022-12-18T08:54:47.965Z,23.53
2022-12-18T08:57:14.805Z,24.13
2022-12-18T08:59:41.591Z,21.70
2022-12-18T09:02:11.710Z,20.87
2022-12-18T09:04:38.866Z,23.63
2022-12-18T09:07:05.605Z,21.20
2022-12-18T09:09:32.479Z,23.13
2022-12-18T09:11:59.224Z,23.47
2022-12-18T09:14:25.979Z,23.77
2022-12-18T09:16:52.823Z,21.77
2022-12-18T09:19:19.596Z,23.10
2022-12-18T09:21:48.220Z,22.50
2022-12-18T09:24:15.991Z,21.10
2022-12-18T09:26:45.208Z,20.17
2022-12-18T09:29:14.287Z,18.90
2022-12-18T09:31:49.037Z,23.03
2022-12-18T09:34:16.312Z,22.00
2022-12-18T09:36:43.327Z,35.40
2022-12-18T09:39:10.518Z,26.37
2022-12-18T09:41:43.105Z,19.60
2022-12-18T09:44:45.315Z,23.90
2022-12-18T09:47:36.694Z,25.63
2022-12-18T09:50:17.444Z,20.70
2022-12-18T09:52:53.449Z,23.20
2022-12-18T09:55:26.418Z,21.53
2022-12-18T09:58:08.569Z,11.97
2022-12-18T10:00:35.989Z,20.63
2022-12-18T10:03:11.955Z,23.97
2022-12-18T10:05:53.875Z,18.43
2022-12-18T10:08:33.964Z,23.53
2022-12-18T10:11:35.504Z,21.93
2022-12-18T10:14:29.463Z,21.90
2022-12-18T10:17:14.522Z,22.90
2022-12-18T10:19:51.066Z,24.37
2022-12-18T10:22:29.431Z,15.90
2022-12-18T10:25:17.912Z,17.20
2022-12-18T10:27:44.858Z,20.10
2022-12-18T10:30:20.499Z,16.60
2022-12-18T10:32:48.164Z,19.97
2022-12-18T10:35:27.803Z,19.20
2022-12-18T10:38:13.320Z,22.23
2022-12-18T10:41:18.403Z,22.80
2022-12-18T10:43:45.283Z,24.67
2022-12-18T10:46:11.975Z,28.33
2022-12-18T10:48:49.176Z,19.60
2022-12-18T10:51:30.306Z,21.73
2022-12-18T10:54:00.740Z,17.43
2022-12-18T10:56:31.062Z,13.37
2022-12-18T10:59:01.425Z,22.50
2022-12-18T11:01:29.520Z,23.53
2022-12-18T11:04:02.080Z,23.50
2022-12-18T11:06:30.618Z,20.90
2022-12-18T11:09:20.579Z,20.27
2022-12-18T11:11:56.366Z,21.57
2022-12-18T11:14:25.891Z,21.83
2022-12-18T11:17:26.259Z,24.33
2022-12-18T11:19:43.688Z,29.63
2022-12-18T11:22:25.318Z,27.70
2022-12-18T11:28:27.870Z,22.30
2022-12-18T11:31:20.893Z,23.90
2022-12-18T11:34:19.827Z,23.13
2022-12-18T11:36:45.629Z,39.63
2022-12-18T11:39:26.159Z,35.70
2022-12-18T11:42:12.877Z,22.57
2022-12-18T11:44:52.439Z,20.43
2022-12-18T11:47:49.099Z,18.57
2022-12-18T11:50:26.039Z,26.03
2022-12-18T11:52:58.178Z,24.33
2022-12-18T11:55:45.020Z,27.23
2022-12-18T11:58:53.853Z,25.47
2022-12-18T12:01:25.011Z,24.00
2022-12-18T12:04:19.924Z,26.67
2022-12-18T12:07:24.410Z,23.30
2022-12-18T12:10:28.899Z,27.83
2022-12-18T12:13:35.502Z,30.23
2022-12-18T12:16:27.763Z,22.53
2022-12-18T12:19:11.490Z,22.97
2022-12-18T12:21:43.256Z,27.87
2022-12-18T12:24:19.092Z,32.67
2022-12-18T12:27:06.037Z,30.17
2022-12-18T12:29:52.867Z,34.77
2022-12-18T12:32:44.064Z,28.33
2022-12-18T12:35:26.162Z,26.83
2022-12-18T12:38:01.220Z,24.57
2022-12-18T12:43:27.761Z,22.23
2022-12-18T12:46:03.758Z,29.33
2022-12-18T12:48:34.108Z,28.17
2022-12-18T12:51:07.873Z,24.67
2022-12-18T12:53:38.558Z,26.33
2022-12-18T12:56:08.393Z,54.67
2022-12-18T12:58:47.727Z,30.17
2022-12-18T13:01:35.109Z,38.27
2022-12-18T13:04:14.229Z,47.23
2022-12-18T13:06:54.513Z,37.80
2022-12-18T13:09:21.435Z,43.23
2022-12-18T13:12:07.678Z,33.03
2022-12-18T13:14:40.305Z,25.93
2022-12-18T13:17:18.539Z,57.37
2022-12-18T13:19:46.463Z,28.70
2022-12-18T13:22:25.162Z,25.53
2022-12-18T13:24:52.349Z,24.93
2022-12-18T13:28:07.200Z,26.37
2022-12-18T13:30:34.293Z,24.70
2022-12-18T13:33:20.866Z,25.83
2022-12-18T13:35:47.953Z,20.93
2022-12-18T13:38:32.440Z,23.57
2022-12-18T13:41:22.374Z,23.57
2022-12-18T13:44:12.034Z,22.00
2022-12-18T13:46:51.015Z,23.20
2022-12-18T13:49:17.723Z,21.57
2022-12-18T13:51:49.950Z,24.03
2022-12-18T13:54:52.288Z,26.10
2022-12-18T13:57:33.965Z,24.73
2022-12-18T14:00:20.725Z,23.87
2022-12-18T14:02:47.647Z,22.70
2022-12-18T14:05:27.148Z,23.67
2022-12-18T14:07:55.576Z,22.53
2022-12-18T14:13:17.394Z,24.90
2022-12-18T14:15:48.989Z,23.93
2022-12-18T14:18:15.738Z,25.60
2022-12-18T14:20:52.857Z,24.90
2022-12-18T14:23:38.509Z,24.67
2022-12-18T14:26:29.997Z,24.83
2022-12-18T14:29:02.344Z,24.03
2022-12-18T14:31:31.681Z,25.70
2022-12-18T14:33:58.684Z,25.50
2022-12-18T14:36:28.545Z,25.60
2022-12-18T14:38:59.898Z,25.80
2022-12-18T14:41:27.484Z,23.93
2022-12-18T14:43:55.518Z,25.40
2022-12-18T14:46:44.486Z,24.97
2022-12-18T14:49:34.978Z,26.43
2022-12-18T14:52:07.217Z,28.63
2022-12-18T14:54:38.173Z,26.23
2022-12-18T14:57:22.956Z,26.70
2022-12-18T14:59:50.147Z,24.60
2022-12-18T15:02:26.314Z,22.70
2022-12-18T15:05:12.622Z,22.80
2022-12-18T15:07:53.757Z,23.13
2022-12-18T15:10:22.145Z,25.87
2022-12-18T15:13:08.639Z,25.00
2022-12-18T15:15:38.648Z,22.03
2022-12-18T15:18:07.859Z,21.73
2022-12-18T15:20:49.290Z,20.93
2022-12-18T15:23:26.928Z,21.10
2022-12-18T15:26:04.277Z,21.67
2022-12-18T15:28:47.273Z,22.03
2022-12-18T15:31:14.098Z,24.40
2022-12-18T15:34:00.561Z,24.07
2022-12-18T15:36:27.655Z,24.23
2022-12-18T15:39:04.939Z,24.97
2022-12-18T15:41:36.920Z,33.87
2022-12-18T15:44:16.667Z,26.93
2022-12-18T15:46:43.428Z,25.23
2022-12-18T15:49:10.380Z,27.53
2022-12-18T15:51:39.780Z,26.37
2022-12-18T15:54:13.019Z,28.23
2022-12-18T15:56:58.443Z,27.13
2022-12-18T15:59:25.462Z,25.43
2022-12-18T16:01:54.225Z,25.40
2022-12-18T16:04:22.875Z,26.53
2022-12-18T16:07:14.891Z,31.03
2022-12-18T16:09:39.723Z,29.63
2022-12-18T16:12:08.087Z,22.03
2022-12-18T16:14:34.896Z,23.30
2022-12-18T16:17:04.316Z,25.37
2022-12-18T16:19:31.548Z,26.53
2022-12-18T16:21:59.538Z,26.67
2022-12-18T16:24:31.592Z,25.63
2022-12-18T16:27:00.367Z,23.90
2022-12-18T16:29:29.353Z,24.30
2022-12-18T16:32:00.156Z,23.10
2022-12-18T16:34:29.717Z,27.07
2022-12-18T16:37:04.819Z,26.30
2022-12-18T16:39:34.338Z,24.47
2022-12-18T16:42:03.906Z,25.37
2022-12-18T16:44:33.977Z,25.13
2022-12-18T16:47:03.076Z,24.60
2022-12-18T16:49:30.589Z,24.30
2022-12-18T16:51:57.465Z,23.50
2022-12-18T16:54:24.974Z,23.90
2022-12-18T16:56:52.260Z,24.80
2022-12-18T16:59:19.873Z,29.93
2022-12-18T17:01:47.407Z,22.80
2022-12-18T17:04:14.997Z,20.97
2022-12-18T17:06:43.788Z,24.40
2022-12-18T17:09:18.523Z,19.07
2022-12-18T17:11:45.361Z,23.13
2022-12-18T17:14:15.778Z,19.60
2022-12-18T17:16:42.911Z,17.27
2022-12-18T17:19:15.304Z,21.70
2022-12-18T17:21:45.417Z,22.17
2022-12-18T17:24:12.453Z,22.83
2022-12-18T17:26:39.651Z,21.53
2022-12-18T17:29:06.699Z,22.03
2022-12-18T17:31:34.506Z,23.03
2022-12-18T17:34:05.126Z,22.57
2022-12-18T17:36:32.401Z,19.97
2022-12-18T17:39:02.082Z,23.37
2022-12-18T17:41:30.646Z,23.07
2022-12-18T17:44:02.662Z,24.30
2022-12-18T17:46:31.372Z,22.20
2022-12-18T17:48:59.458Z,22.90
2022-12-18T17:51:27.084Z,21.80
2022-12-18T17:53:54.116Z,23.37
2022-12-18T17:56:23.318Z,24.63
2022-12-18T17:58:50.903Z,25.77
2022-12-18T18:01:20.745Z,23.93
2022-12-18T18:03:50.349Z,25.20
2022-12-18T18:06:23.596Z,23.67
2022-12-18T18:08:52.118Z,24.13
2022-12-18T18:11:39.600Z,20.70
2022-12-18T18:14:18.905Z,20.23
2022-12-18T18:16:50.890Z,22.30
2022-12-18T18:19:23.041Z,23.67
2022-12-18T18:21:52.535Z,21.03
2022-12-18T18:24:23.575Z,23.10
2022-12-18T18:26:50.529Z,27.70
2022-12-18T18:29:20.591Z,24.80
2022-12-18T18:31:48.531Z,24.73
2022-12-18T18:34:24.612Z,20.83
2022-12-18T18:36:51.527Z,26.90
2022-12-18T18:39:18.768Z,24.20
2022-12-18T18:41:48.311Z,23.83
2022-12-18T18:44:16.581Z,26.90
2022-12-18T18:46:43.497Z,24.73
2022-12-18T18:49:10.501Z,22.63
2022-12-18T18:51:40.270Z,24.73
2022-12-18T18:54:07.398Z,22.20
2022-12-18T18:56:56.708Z,24.07
2022-12-18T18:59:23.087Z,23.87
2022-12-18T19:01:59.939Z,24.17
2022-12-18T19:04:31.167Z,23.17
2022-12-18T19:07:07.127Z,22.30
2022-12-18T19:09:36.401Z,21.63
2022-12-18T19:12:23.448Z,21.50
2022-12-18T19:14:50.270Z,21.03
2022-12-18T19:17:17.122Z,21.67
2022-12-18T19:19:44.219Z,20.23
2022-12-18T19:22:11.611Z,23.33
2022-12-18T19:24:38.724Z,15.97
2022-12-18T19:27:05.522Z,20.83
2022-12-18T19:29:32.475Z,12.60
2022-12-18T19:31:59.621Z,17.07
2022-12-18T19:34:26.857Z,18.50
2022-12-18T19:36:59.295Z,21.80
2022-12-18T19:39:26.417Z,17.37
2022-12-18T19:41:53.377Z,18.80
2022-12-18T19:44:21.128Z,16.20
2022-12-18T19:46:51.504Z,21.20
2022-12-18T19:49:21.597Z,15.23
2022-12-18T19:51:50.168Z,18.13
2022-12-18T19:54:17.907Z,19.37
2022-12-18T19:56:45.441Z,22.77
2022-12-18T19:59:12.672Z,23.77
2022-12-18T20:01:40.190Z,21.27
2022-12-18T20:04:07.161Z,17.27
2022-12-18T20:06:45.186Z,16.83
2022-12-18T20:09:12.048Z,10.17
2022-12-18T20:11:41.481Z,15.23
2022-12-18T20:14:10.271Z,16.70
2022-12-18T20:16:37.899Z,16.73
2022-12-18T20:19:05.472Z,17.43
2022-12-18T20:21:32.829Z,19.17
2022-12-18T20:24:01.227Z,17.00
2022-12-18T20:26:28.286Z,18.13
2022-12-18T20:28:55.602Z,15.93
2022-12-18T20:31:23.303Z,18.90
2022-12-18T20:33:51.111Z,14.03
2022-12-18T20:36:22.491Z,15.90
2022-12-18T20:38:51.943Z,16.43
2022-12-18T20:41:23.239Z,17.00
2022-12-18T20:43:50.460Z,17.90
2022-12-18T20:46:18.218Z,15.77
2022-12-18T20:48:45.535Z,13.80
2022-12-18T20:51:17.040Z,14.60
2022-12-18T20:53:44.649Z,14.13
2022-12-18T20:56:21.940Z,13.90
2022-12-18T20:58:55.111Z,16.67
2022-12-18T21:01:26.940Z,16.77
2022-12-18T21:03:54.471Z,15.40
2022-12-18T21:06:24.031Z,12.23
2022-12-18T21:08:50.838Z,15.67
2022-12-18T21:11:40.709Z,16.20
2022-12-18T21:14:14.421Z,16.90
2022-12-18T21:16:43.815Z,14.63
2022-12-18T21:19:21.328Z,15.87
2022-12-18T21:21:52.290Z,15.30
2022-12-18T21:24:19.957Z,17.03
2022-12-18T21:26:48.384Z,14.20
2022-12-18T21:29:21.433Z,10.90
2022-12-18T21:31:48.634Z,15.30
2022-12-18T21:34:19.765Z,14.73
2022-12-18T21:36:47.446Z,15.20
2022-12-18T21:39:14.842Z,14.47
2022-12-18T21:42:00.890Z,16.60
2022-12-18T21:44:30.561Z,17.77
2022-12-18T21:47:15.152Z,14.53
2022-12-18T21:49:49.569Z,13.87
2022-12-18T21:52:17.188Z,14.97
2022-12-18T21:54:44.155Z,12.53
2022-12-18T21:57:13.414Z,14.60
2022-12-18T21:59:42.595Z,15.23
2022-12-18T22:02:16.357Z,14.80
2022-12-18T22:04:44.520Z,14.70
2022-12-18T22:07:13.142Z,14.70
2022-12-18T22:09:41.474Z,13.20
2022-12-18T22:12:11.505Z,14.77
2022-12-18T22:14:38.393Z,12.83
2022-12-18T22:17:05.356Z,16.03
2022-12-18T22:19:32.391Z,12.90
2022-12-18T22:22:00.484Z,14.87
2022-12-18T22:24:29.176Z,12.23
2022-12-18T22:27:01.646Z,12.87
2022-12-18T22:29:48.658Z,10.27
2022-12-18T22:32:18.921Z,10.80
2022-12-18T22:35:04.541Z,12.90
2022-12-18T22:37:33.114Z,12.33
2022-12-18T22:39:59.951Z,14.73
2022-12-18T22:42:31.605Z,15.67
2022-12-18T22:45:00.404Z,12.47
2022-12-18T22:47:30.348Z,12.90
2022-12-18T22:49:58.484Z,13.57
2022-12-18T22:52:25.777Z,13.20
2022-12-18T22:54:54.238Z,12.17
2022-12-18T22:57:22.863Z,12.20
2022-12-18T22:59:50.684Z,13.87
2022-12-18T23:02:19.681Z,12.73
2022-12-18T23:04:47.713Z,12.13
2022-12-18T23:07:18.264Z,12.30
2022-12-18T23:09:45.518Z,11.07
2022-12-18T23:12:16.546Z,11.77
2022-12-18T23:14:43.650Z,12.77
2022-12-18T23:17:11.006Z,12.43
2022-12-18T23:19:37.882Z,11.80
2022-12-18T23:22:10.094Z,12.90
2022-12-18T23:24:38.889Z,12.67
2022-12-18T23:27:05.761Z,13.43
2022-12-18T23:29:38.966Z,11.60
2022-12-18T23:32:06.361Z,12.50
2022-12-18T23:34:33.325Z,12.20
2022-12-18T23:37:01.139Z,13.70
2022-12-18T23:39:29.793Z,11.70
2022-12-18T23:41:58.640Z,11.23
2022-12-18T23:44:25.973Z,12.50
2022-12-18T23:46:53.062Z,11.67
2022-12-18T23:49:20.130Z,13.20
2022-12-18T23:51:47.118Z,11.90
2022-12-18T23:54:14.028Z,12.57
2022-12-18T23:56:41.036Z,10.63
2022-12-18T23:59:08.030Z,13.13
